Tiempo atmosférico en la estación meteorológica de Figueres, Girona (47 m.)



Fecha
DESCASC
Temp. máxima en grados centígrados (hora)
DESCASC
Temp. mínima en grados centígrados (hora)
DESCASC
Temp. media en grados centígrados
DESCASC
Racha de viento máxima en m/sg (hora)
DESCASC
Velocidad máxima media en intervalos de 10 minutos(hora)
DESCASC
Precipitaciones diarias en mm
DESCASC
Precipitaciones de 00:00 a 06:00 en mm
DESCASC
Precipitaciones de 06:00 a 12:00 en mm
DESCASC
Precipitaciones de 12:00 a 18:00 en mm
DESCASC
Precipitaciones de 18:00 a 24:00 en mm
DESCASC
19-01-2020 11.6 (12:30) 7.5 (08:20) 9.6 16.67 (14:10) 6.39 (21:00) 0 0 0 0 0
18-01-2020 13.9 (14:10) 4.4 (00:30) 9.1 5.83 (06:40) 2.78 (06:50) 0 0 0 0 0
17-01-2020 17 (14:00) 4.8 (23:50) 10.9 13.33 (16:50) 6.39 (16:50) 7.2 0 0 7.2 0
16-01-2020 14.6 (16:20) 4.4 (00:00) 9.5 4.72 (14:20) 2.5 (14:30) 0 0 0 0 0
15-01-2020 15.8 (15:50) 6.1 (00:00) 11 9.72 (12:20) 5 (13:00) 0 0 0 0 0
14-01-2020 13.6 (15:10) 1.8 (00:00) 7.7 7.5 (23:59) 3.61 (23:59) 0 0 0 0 0
13-01-2020 12.7 (14:10) 0.8 (00:00) 6.7 3.89 (14:30) 1.94 (14:00) 0 0 0 0 0
12-01-2020 14.4 (14:30) 0.6 (00:00) 7.5 3.06 (23:20) 1.39 (17:10) 0 0 0 0 0
11-01-2020 14.2 (14:50) 3.4 (00:00) 8.8 11.11 (11:20) 5.28 (07:10) 0 0 0 0 0
10-01-2020 15.6 (14:00) 8.6 (00:00) 12.1 16.67 (21:10) 6.67 (21:10) 2.2 1.2 1 0 0
09-01-2020 16.3 (14:30) 3.1 (00:00) 9.7 10.83 (19:30) 5.56 (19:40) 0 0 0 0 0
08-01-2020 17.4 (14:50) 6.3 (00:00) 11.8 12.78 (02:30) 4.72 (01:50) 0 0 0 0 0
07-01-2020 16.6 (15:20) 3.1 (00:00) 9.9 11.67 (22:00) 5.83 (17:10) 0 0 0 0 0
06-01-2020 15.4 (13:30) 3.2 (00:00) 9.3 3.89 (21:30) 1.94 (21:30) 0 0 0 0 0
05-01-2020 18.1 (14:50) 5.5 (00:00) 11.8 10 (08:00) 5.83 (08:00) 0 0 0 0 0
04-01-2020 17.6 (14:10) 6 (00:00) 11.8 10 (22:10) 4.17 (03:00) 0 0 0 0 0
03-01-2020 13.8 (13:30) 3.3 (00:00) 8.6 8.33 (22:30) 3.61 (22:30) 0 0 0 0 0
02-01-2020 13.5 (15:10) 4.1 (00:00) 8.8 4.72 (14:00) 2.22 (14:00) 0 0 0 0 0
01-01-2020 13.4 (13:10) 3.9 (00:00) 8.6 3.33 (07:30) 1.67 (07:00) 0 0 0 0 0
31-12-2019 15.2 (14:50) 5.5 (00:00) 10.3 3.33 (16:10) 1.67 (07:40) 0 0 0 0 0
30-12-2019 13.4 (14:10) 3.7 (00:00) 8.5 3.61 (20:30) 1.94 (09:00) 0 0 0 0 0
29-12-2019 14.1 (14:50) 4 (00:00) 9.1 3.61 (19:50) 1.94 (15:40) 0 0 0 0 0
28-12-2019 15.3 (13:40) 5.3 (00:00) 10.3 12.22 (00:20) 5.56 (00:20) 0 0 0 0 0
27-12-2019 17.8 (15:50) 7.7 (00:00) 12.7 11.67 (21:50) 5 (21:50) 0 0 0 0 0
26-12-2019 17.1 (15:20) 7.3 (00:00) 12.2 12.78 (21:10) 5.83 (16:00) 0 0 0 0 0
25-12-2019 21.3 (15:10) 7.6 (00:00) 14.4 4.17 (00:30) 2.5 (00:50) 0 0 0 0 0
24-12-2019 20 (14:40) 5.8 (00:00) 12.9 4.17 (23:59) 2.5 (04:00) 0 0 0 0 0
23-12-2019 17 (15:00) 7.2 (00:00) 12.1 12.22 (02:10) 5.56 (02:10) 0 0 0 0 0

Gráficas

Temp. máximas Temp. mínimas Temp. medias Precipitaciones Rachas de viento máximas Velocidades máximas media en intervalos de 10 minutos

Datos horarios

Fecha y hora oficial Temperatura (ºC) Velocidad del viento (km/h) Dirección del viento Racha (km/h) Dirección de racha Precipitación (mm) Presión (hPa) Tendencia (hPa) Humedad (%)
2020-01-21 23:00:00 -- -- -- -- -- -- -- -- --
2020-01-21 22:00:00 -- -- -- -- -- -- -- -- --
2020-01-21 21:00:00 -- -- -- -- -- -- -- -- --
2020-01-21 20:00:00 -- -- -- -- -- -- -- -- --
2020-01-21 19:00:00 -- -- -- -- -- -- -- -- --
2020-01-21 18:00:00 -- -- -- -- -- -- -- -- --
2020-01-21 17:00:00 -- -- -- -- -- -- -- -- --
2020-01-21 16:00:00 -- -- -- -- -- -- -- -- --
2020-01-21 15:00:00 -- -- -- -- -- -- -- -- --
2020-01-21 14:00:00 -- -- -- -- -- -- -- -- --
2020-01-21 13:00:00 -- -- -- -- -- -- -- -- --
2020-01-21 12:00:00 -- -- -- -- -- -- -- -- --
2020-01-21 11:00:00 -- -- -- -- -- -- -- -- --
2020-01-21 10:00:00 -- -- -- -- -- -- -- -- --
2020-01-21 09:00:00 -- -- -- -- -- -- -- -- --
2020-01-21 08:00:00 -- -- -- -- -- -- -- -- --
2020-01-21 07:00:00 -- -- -- -- -- -- -- -- --
2020-01-21 06:00:00 4.9 14 Nordeste 38 Nordeste 9 -- -- 95
2020-01-21 05:00:00 4 15 Nordeste 38 Nordeste 12.8 -- -- 95
2020-01-21 04:00:00 3.6 17 Nordeste 38 Nordeste 8 -- -- 93
2020-01-21 03:00:00 3.7 17 Nordeste 35 Nordeste 4.8 -- -- 93
2020-01-21 02:00:00 3.6 18 Nordeste 37 Nordeste 4 -- -- 93
2020-01-21 01:00:00 3.8 14 Nordeste 37 Nordeste 4.4 -- -- 94
2020-01-21 00:00:00 4 17 Nordeste 36 Nordeste 4.8 -- -- 93
2020-01-20 23:00:00 4.1 16 Nordeste 37 Nordeste 9.2 -- -- 94
2020-01-20 22:00:00 4.1 17 Nordeste 34 Nordeste 6 -- -- 93
2020-01-20 21:00:00 4.6 17 Nordeste 35 Norte 3.8 -- -- 91
2020-01-20 20:00:00 4.8 15 Nordeste 33 Norte 4.8 -- -- 92
2020-01-20 19:00:00 5 13 Nordeste 28 Nordeste 4.2 -- -- 90
2020-01-20 18:00:00 5.4 13 Nordeste 28 Este 3.8 -- -- 88
2020-01-20 17:00:00 6 16 Este 32 Nordeste 2.2 -- -- 83
2020-01-20 16:00:00 6.1 15 Este 31 Este 1.4 -- -- 82
2020-01-20 15:00:00 6.2 12 Este 31 Este 1.8 -- -- 78
2020-01-20 14:00:00 6.5 14 Este 40 Nordeste 0.4 -- -- 74
2020-01-20 13:00:00 7.6 14 Este 44 Nordeste 0 -- -- 62
2020-01-20 12:00:00 7.4 17 Nordeste 46 Norte 0 -- -- 63
2020-01-20 11:00:00 6.6 17 Nordeste 57 Norte 0 -- -- 63
2020-01-20 10:00:00 6.5 15 Este 42 Este 0 -- -- 60
2020-01-20 09:00:00 6.4 15 Nordeste 44 Nordeste 0 -- -- 59
2020-01-20 08:00:00 6.1 20 Nordeste 43 Nordeste 0 -- -- 57
2020-01-20 07:00:00 6.5 17 Nordeste 55 Nordeste 0 -- -- 50
2020-01-20 06:00:00 6.9 24 Nordeste 50 Nordeste 0 -- -- 46
2020-01-20 05:00:00 7.1 15 Nordeste 49 Nordeste 0 -- -- 44
2020-01-20 04:00:00 7 19 Nordeste 51 Nordeste 0 -- -- 44
2020-01-20 03:00:00 7.1 20 Nordeste 49 Nordeste 0 -- -- 45
2020-01-20 02:00:00 7 18 Nordeste 48 Nordeste 0 -- -- 45
2020-01-20 01:00:00 7.4 20 Nordeste 57 Nordeste 0 -- -- 44
2020-01-20 00:00:00 7.7 17 Nordeste 48 Nordeste 0 -- -- 43
2020-01-19 23:00:00 8.2 18 Nordeste 55 Este 0 -- -- 42
2020-01-19 22:00:00 8.3 17 Nordeste 51 Nordeste 0 -- -- 42
2020-01-19 21:00:00 8.4 23 Nordeste 57 Nordeste 0 -- -- 42
2020-01-19 20:00:00 8.7 19 Nordeste 45 Nordeste 0 -- -- 41
2020-01-19 19:00:00 8.9 15 Nordeste 49 Nordeste 0 -- -- 44
2020-01-19 18:00:00 9.3 22 Nordeste 46 Nordeste 0 -- -- 42
2020-01-19 17:00:00 10.1 13 Nordeste 49 Este 0 -- -- 41
2020-01-19 16:00:00 11 16 Este 42 Nordeste 0 -- -- 32
2020-01-19 15:00:00 11.2 18 Nordeste 60 Nordeste 0 -- -- 37
2020-01-19 14:00:00 11.2 14 Nordeste 45 Este 0 -- -- 40
2020-01-19 13:00:00 11.3 14 Nordeste 41 Este 0 -- -- 41
2020-01-19 12:00:00 11.3 14 Este 38 Sudeste 0 -- -- 39
2020-01-19 11:00:00 10.3 17 Este 36 Nordeste 0 -- -- 40
2020-01-19 10:00:00 9 9 Nordeste 22 Este 0 -- -- 45
2020-01-19 09:00:00 7.8 8 Nordeste 29 Nordeste 0 -- -- 56
2020-01-19 08:00:00 7.7 10 Nordeste 27 Norte 0 -- -- 60
2020-01-19 07:00:00 8 9 Nordeste 24 Nordeste 0 -- -- 63
2020-01-19 06:00:00 7.8 10 Nordeste 33 Nordeste 0 -- -- 66
2020-01-19 05:00:00 8.1 12 Nordeste 31 Nordeste 0 -- -- 70
2020-01-19 04:00:00 8.4 7 Nordeste 24 Nordeste 0 -- -- 76
2020-01-19 03:00:00 9 9 Nordeste 18 Norte 0 -- -- 78
2020-01-19 02:00:00 9.6 8 Este 19 Este 0 -- -- 74
2020-01-19 01:00:00 9.8 4 Nordeste 12 Nordeste 0 -- -- 82
2020-01-19 00:00:00 9.7 4 Nordeste 9 Nordeste 0 -- -- 81
2020-01-18 23:00:00 9.6 4 Nordeste 12 Nordeste 0 -- -- 79
2020-01-18 22:00:00 9.6 5 Nordeste 9 Norte 0 -- -- 77
2020-01-18 21:00:00 9.8 4 Nordeste 10 Norte 0 -- -- 77
2020-01-18 20:00:00 10.2 4 Este 10 Nordeste 0 -- -- 76
2020-01-18 19:00:00 10.4 3 Este 10 Sudeste 0 -- -- 76
2020-01-18 18:00:00 10.7 3 Sudeste 12 Sudeste 0 -- -- 76
2020-01-18 17:00:00 11.4 6 Sur 17 Sudeste 0 -- -- 71
2020-01-18 16:00:00 12.1 6 Sudeste 18 Sudeste 0 -- -- 67
2020-01-18 15:00:00 13.3 7 Sur 17 Sur 0 -- -- 62
2020-01-18 14:00:00 13.7 5 Sur 10 Sur 0 -- -- 55
2020-01-18 13:00:00 12.1 3 Sudoeste 8 Sudoeste 0 -- -- 61
2020-01-18 12:00:00 10.7 4 Noroeste 10 Noroeste 0 -- -- 68
2020-01-18 11:00:00 10 4 Nordeste 15 Nordeste 0 -- -- 66
2020-01-18 10:00:00 8.8 3 Norte 17 Noroeste 0 -- -- 70
2020-01-18 09:00:00 8.5 6 Nordeste 18 Nordeste 0 -- -- 68
2020-01-18 08:00:00 8.3 8 Nordeste 17 Nordeste 0 -- -- 70
2020-01-18 07:00:00 8.3 8 Nordeste 21 Norte 0 -- -- 69
2020-01-18 06:00:00 7.3 9 Nordeste 21 Nordeste 0 -- -- 74
2020-01-18 05:00:00 4.6 5 Noroeste 9 Noroeste 0 -- -- 93
2020-01-18 04:00:00 5.1 2 Noroeste 7 Norte 0 -- -- 92
2020-01-18 03:00:00 5.5 5 Noroeste 10 Noroeste 0 -- -- 92
2020-01-18 02:00:00 5.2 3 Norte 12 Oeste 0 -- -- 92
2020-01-18 01:00:00 4.8 7 Noroeste 14 Noroeste 0 -- -- 92
2020-01-18 00:00:00 5 6 Norte 12 Noroeste 0 -- -- 91
2020-01-17 23:00:00 5.9 6 Noroeste 15 Noroeste 0 -- -- 87
2020-01-17 22:00:00 6.8 6 Noroeste 12 Noroeste 0 -- -- 85
2020-01-17 21:00:00 7.1 6 Noroeste 12 Noroeste 0 -- -- 86
2020-01-17 20:00:00 7.7 5 Noroeste 10 Noroeste 0 -- -- 85
2020-01-17 19:00:00 8.8 4 Noroeste 9 Nordeste 0 -- -- 86
2020-01-17 18:00:00 9.3 4 Este 42 Norte 7 -- -- 79
2020-01-17 17:00:00 10.4 20 Nordeste 48 Nordeste 0.2 -- -- 72
2020-01-17 16:00:00 11.4 19 Nordeste 46 Nordeste 0 -- -- 63
2020-01-17 15:00:00 14.6 17 Nordeste 36 Nordeste 0 -- -- 56
2020-01-17 14:00:00 17 4 Sudeste 12 Sudeste 0 -- -- 63
2020-01-17 13:00:00 16.5 5 Sudeste 9 Sudeste 0 -- -- 65
2020-01-17 12:00:00 15.1 5 Sur 9 Sur 0 -- -- 69
2020-01-17 11:00:00 12.4 2 Noroeste 9 Noroeste 0 -- -- 75
2020-01-17 10:00:00 9.4 5 Noroeste 9 Noroeste 0 -- -- 87
2020-01-17 09:00:00 7.7 3 Noroeste 6 Noroeste 0 -- -- 91
2020-01-17 08:00:00 8.7 2 Este 9 Noroeste 0 -- -- 88
2020-01-17 07:00:00 8.7 2 Norte 15 Nordeste 0 -- -- 89
2020-01-17 06:00:00 7.6 5 Nordeste 9 Nordeste 0 -- -- 94
2020-01-17 05:00:00 7.3 3 Este 9 Norte 0 -- -- 92
2020-01-17 04:00:00 7.8 4 Nordeste 18 Nordeste 0 -- -- 91
2020-01-17 03:00:00 7.9 5 Este 13 Este 0 -- -- 90
2020-01-17 02:00:00 8.7 2 Este 9 Sudeste 0 -- -- 91
2020-01-17 01:00:00 8 5 Oeste 11 Sudoeste 0 -- -- 94
2020-01-17 00:00:00 6.9 0 Calma 11 Noroeste 0 -- -- 92
2020-01-16 23:00:00 6.3 0 Calma 8 Noroeste 0 -- -- 93
2020-01-16 22:00:00 7 4 Noroeste 9 Noroeste 0 -- -- 92
2020-01-16 21:00:00 8.7 0 Calma 5 Norte 0 -- -- 89
2020-01-16 20:00:00 9.7 0 Calma 5 Noroeste 0 -- -- 87
2020-01-16 19:00:00 11.4 2 Nordeste 5 Nordeste 0 -- -- 84
2020-01-16 18:00:00 12.7 2 Este 9 Nordeste 0 -- -- 79
2020-01-16 17:00:00 13.8 4 Norte 10 Nordeste 0 -- -- 74
2020-01-16 16:00:00 14.3 4 Este 13 Sur 0 -- -- 75
2020-01-16 15:00:00 13.6 7 Sudeste 17 Sur 0 -- -- 76
2020-01-16 14:00:00 14.3 5 Sur 13 Sur 0 -- -- 70
2020-01-16 13:00:00 13.6 4 Sudeste 10 Sur 0 -- -- 69
2020-01-16 12:00:00 11.3 4 Sudeste 5 Sudeste 0 -- -- 76
2020-01-16 11:00:00 9.1 0 Calma 5 Noroeste 0 -- -- 86
2020-01-16 10:00:00 6.5 2 Sudoeste 5 Sur 0 -- -- 90
2020-01-16 09:00:00 6 4 Noroeste 8 Noroeste 0 -- -- 89
2020-01-16 08:00:00 5.9 4 Noroeste 8 Noroeste 0 -- -- 89
2020-01-16 07:00:00 5.5 0 Calma 11 Noroeste 0 -- -- 88
2020-01-16 06:00:00 4.6 4 Noroeste 9 Noroeste 0 -- -- 88
2020-01-16 05:00:00 4.8 2 Norte 8 Noroeste 0 -- -- 88
2020-01-16 04:00:00 4.7 3 Norte 6 Noroeste 0 -- -- 87
2020-01-16 03:00:00 4.8 2 Noroeste 8 Noroeste 0 -- -- 87
2020-01-16 02:00:00 5 4 Norte 9 Noroeste 0 -- -- 86
2020-01-16 01:00:00 5.7 0 Calma 5 Noroeste 0 -- -- 84
2020-01-16 00:00:00 6.4 3 Norte 8 Noroeste 0 -- -- 83
2020-01-15 23:00:00 7 3 Este 6 Noroeste 0 -- -- 81
2020-01-15 22:00:00 8 2 Este 7 Norte 0 -- -- 79
2020-01-15 21:00:00 9.2 4 Noroeste 6 Noroeste 0 -- -- 75
2020-01-15 20:00:00 10.3 3 Nordeste 12 Nordeste 0 -- -- 77
2020-01-15 19:00:00 10.8 4 Nordeste 8 Norte 0 -- -- 73
2020-01-15 18:00:00 12.1 0 Calma 6 Sur 0 -- -- 66
2020-01-15 17:00:00 14 4 Sur 13 Sur 0 -- -- 54
2020-01-15 16:00:00 15.7 7 Sudoeste 17 Oeste 0 -- -- 48
2020-01-15 15:00:00 15.1 11 Sudoeste 21 Sudoeste 0 -- -- 51
2020-01-15 14:00:00 14.9 7 Sudoeste 29 Sudoeste 0 -- -- 53
2020-01-15 13:00:00 14.6 18 Oeste 35 Oeste 0 -- -- 55
2020-01-15 12:00:00 13.7 14 Sudoeste 31 Oeste 0 -- -- 63
2020-01-15 11:00:00 12.3 13 Sudoeste 26 Oeste 0 -- -- 71
2020-01-15 10:00:00 9.6 11 Sudoeste 20 Oeste 0 -- -- 80
2020-01-15 09:00:00 7.1 7 Oeste 15 Sudoeste 0 -- -- 86
2020-01-15 08:00:00 6.5 0 Calma 9 Sudoeste 0 -- -- 83
2020-01-15 07:00:00 7.4 5 Sudoeste 18 Sudoeste 0 -- -- 85
2020-01-15 06:00:00 8.9 12 Sudoeste 23 Sudoeste 0 -- -- 81
2020-01-15 05:00:00 8.4 9 Sudoeste 20 Sudoeste 0 -- -- 83
2020-01-15 04:00:00 9.4 9 Oeste 24 Sudoeste 0 -- -- 79
2020-01-15 03:00:00 9.5 8 Oeste 33 Sudoeste 0 -- -- 80
2020-01-15 02:00:00 10.2 16 Sudoeste 31 Oeste 0 -- -- 78
2020-01-15 01:00:00 9.9 9 Sudoeste 20 Sudoeste 0 -- -- 80
2020-01-15 00:00:00 10.1 13 Sudoeste 27 Oeste 0 -- -- 79
2020-01-14 23:00:00 9.6 6 Sudoeste 23 Oeste 0 -- -- 80
2020-01-14 22:00:00 7.7 3 Sudoeste 10 Sudoeste 0 -- -- 79
2020-01-14 21:00:00 7.7 4 Noroeste 6 Noroeste 0 -- -- 77
2020-01-14 20:00:00 8.5 0 Calma 5 Noroeste 0 -- -- 75
2020-01-14 19:00:00 9.5 3 Noroeste 12 Oeste 0 -- -- 70
2020-01-14 18:00:00 11.4 3 Nordeste 9 Nordeste 0 -- -- 63
2020-01-14 17:00:00 12.8 3 Nordeste 9 Este 0 -- -- 59
2020-01-14 16:00:00 13.6 4 Este 12 Este 0 -- -- 55
2020-01-14 15:00:00 13.4 4 Este 9 Este 0 -- -- 55
2020-01-14 14:00:00 12.7 4 Sudeste 10 Sudeste 0 -- -- 58
2020-01-14 13:00:00 11.8 3 Sur 8 Sur 0 -- -- 62
2020-01-14 12:00:00 10.4 3 Sur 6 Sudoeste 0 -- -- 70
2020-01-14 11:00:00 7.8 0 Calma 4 Sur 0 -- -- 78
2020-01-14 10:00:00 4.8 0 Calma 5 Noroeste 0 -- -- 90
2020-01-14 09:00:00 2.7 3 Norte 9 Noroeste 0 -- -- 94
2020-01-14 08:00:00 1.9 4 Noroeste 9 Noroeste 0 -- -- 94
2020-01-14 07:00:00 1.9 2 Norte 5 Norte 0 -- -- 94
2020-01-14 06:00:00 2.5 3 Sur 10 Noroeste 0 -- -- 93
2020-01-14 05:00:00 2.3 5 Noroeste 9 Noroeste 0 -- -- 94
2020-01-14 04:00:00 2.4 0 Calma 7 Noroeste 0 -- -- 95
2020-01-14 03:00:00 2.8 0 Calma 9 Noroeste 0 -- -- 94
2020-01-14 02:00:00 2.5 5 Noroeste 10 Noroeste 0 -- -- 94
2020-01-14 01:00:00 2.9 2 Noroeste 5 Noroeste 0 -- -- 93
2020-01-14 00:00:00 3.5 0 Calma 7 Noroeste 0 -- -- 93
2020-01-13 23:00:00 4.1 0 Calma 7 Noroeste 0 -- -- 92
2020-01-13 22:00:00 5.2 0 Calma 7 Norte 0 -- -- 91
2020-01-13 21:00:00 6.1 4 Noroeste 8 Noroeste 0 -- -- 88
2020-01-13 20:00:00 7.6 2 Noroeste 4 Norte 0 -- -- 85
2020-01-13 19:00:00 8.8 2 Norte 5 Noroeste 0 -- -- 82
2020-01-13 18:00:00 10.3 0 Calma 4 Sur 0 -- -- 77
2020-01-13 17:00:00 11.2 3 Sudeste 8 Sur 0 -- -- 73
2020-01-13 16:00:00 12 5 Sur 10 Sudoeste 0 -- -- 68
2020-01-13 15:00:00 12.7 5 Sur 14 Sur 0 -- -- 63
2020-01-13 14:00:00 12.6 7 Sudoeste 12 Sudoeste 0 -- -- 62
2020-01-13 13:00:00 12.1 3 Oeste 8 Sudoeste 0 -- -- 63
2020-01-13 12:00:00 10.7 2 Sudoeste 5 Sur 0 -- -- 64
2020-01-13 11:00:00 6.8 0 Calma 4 Noroeste 0 -- -- 75
2020-01-13 10:00:00 4.4 2 Noroeste 6 Noroeste 0 -- -- 79
2020-01-13 09:00:00 1.5 3 Noroeste 5 Noroeste 0 -- -- 88
2020-01-13 08:00:00 0.8 0 Calma 6 Noroeste 0 -- -- 87
2020-01-13 07:00:00 1.1 3 Noroeste 5 Noroeste 0 -- -- 88
2020-01-13 06:00:00 1.2 0 Calma 6 Noroeste 0 -- -- 87
2020-01-13 05:00:00 1.6 3 Noroeste 10 Noroeste 0 -- -- 87
2020-01-13 04:00:00 1.4 3 Noroeste 7 Noroeste 0 -- -- 90
2020-01-13 03:00:00 1.6 0 Calma 4 Noroeste 0 -- -- 88
2020-01-13 02:00:00 2.2 3 Norte 7 Noroeste 0 -- -- 88
2020-01-13 01:00:00 2.3 0 Calma 5 Noroeste 0 -- -- 87
2020-01-13 00:00:00 3.6 0 Calma 11 Norte 0 -- -- 85
2020-01-12 23:00:00 4.1 5 Noroeste 9 Noroeste 0 -- -- 83
2020-01-12 22:00:00 4.8 3 Noroeste 8 Norte 0 -- -- 85
2020-01-12 21:00:00 5.3 2 Oeste 5 Noroeste 0 -- -- 82
2020-01-12 20:00:00 7 0 Calma 5 Nordeste 0 -- -- 78
2020-01-12 19:00:00 8.5 2 Norte 6 Noroeste 0 -- -- 73
2020-01-12 18:00:00 10.4 4 Sur 8 Sudoeste 0 -- -- 65
2020-01-12 17:00:00 12.3 5 Sudoeste 8 Sur 0 -- -- 59
2020-01-12 16:00:00 14 5 Sudoeste 8 Sur 0 -- -- 47
2020-01-12 15:00:00 14.4 5 Sudoeste 9 Sur 0 -- -- 46
2020-01-12 14:00:00 14 3 Oeste 8 Oeste 0 -- -- 50
2020-01-12 13:00:00 12.4 4 Sudoeste 8 Oeste 0 -- -- 54
2020-01-12 12:00:00 10.9 2 Oeste 4 Oeste 0 -- -- 58
2020-01-12 11:00:00 8.5 0 Calma 5 Norte 0 -- -- 68
2020-01-12 10:00:00 4.3 3 Noroeste 5 Oeste 0 -- -- 78
2020-01-12 09:00:00 1.3 2 Noroeste 6 Noroeste 0 -- -- 89
2020-01-12 08:00:00 0.8 3 Noroeste 6 Noroeste 0 -- -- 88
2020-01-12 07:00:00 1.1 3 Norte 6 Noroeste 0 -- -- 89
2020-01-12 06:00:00 1.3 0 Calma 5 Noroeste 0 -- -- 87
2020-01-12 05:00:00 1.8 3 Noroeste 8 Noroeste 0 -- -- 87
2020-01-12 04:00:00 1.4 3 Noroeste 6 Noroeste 0 -- -- 88
2020-01-12 03:00:00 1.8 0 Calma 5 Noroeste 0 -- -- 87
2020-01-12 02:00:00 2.1 0 Calma 6 Noroeste 0 -- -- 86
2020-01-12 01:00:00 2.7 2 Noroeste 6 Noroeste 0 -- -- 84
2020-01-12 00:00:00 3.4 3 Noroeste 8 Noroeste 0 -- -- 82
2020-01-11 23:00:00 4.4 0 Calma 6 Noroeste 0 -- -- 81
2020-01-11 22:00:00 5.2 0 Calma 9 Noroeste 0 -- -- 76
2020-01-11 21:00:00 6.3 5 Noroeste 10 Noroeste 0 -- -- 72
2020-01-11 20:00:00 7.7 6 Noroeste 9 Noroeste 0 -- -- 66
2020-01-11 19:00:00 9.5 4 Norte 7 Oeste 0 -- -- 58
2020-01-11 18:00:00 11.5 0 Calma 10 Nordeste 0 -- -- 49
2020-01-11 17:00:00 12.7 3 Sudeste 13 Este 0 -- -- 47
2020-01-11 16:00:00 13.9 6 Este 21 Nordeste 0 -- -- 43
2020-01-11 15:00:00 14.1 11 Nordeste 31 Nordeste 0 -- -- 41
2020-01-11 14:00:00 14 10 Nordeste 25 Nordeste 0 -- -- 43
2020-01-11 13:00:00 13.7 8 Norte 22 Nordeste 0 -- -- 45
2020-01-11 12:00:00 12.3 8 Nordeste 40 Nordeste 0 -- -- 49
2020-01-11 11:00:00 11.4 14 Nordeste 28 Nordeste 0 -- -- 51
2020-01-11 10:00:00 10.6 3 Sur 26 Nordeste 0 -- -- 55
2020-01-11 09:00:00 8.8 11 Nordeste 34 Nordeste 0 -- -- 61
2020-01-11 08:00:00 8.6 12 Nordeste 36 Nordeste 0 -- -- 62
2020-01-11 07:00:00 8.8 17 Nordeste 33 Nordeste 0 -- -- 62
2020-01-11 06:00:00 8.9 5 Norte 18 Sudeste 0 -- -- 61
2020-01-11 05:00:00 8.8 6 Sudeste 33 Nordeste 0 -- -- 63
2020-01-11 04:00:00 9.2 10 Nordeste 29 Nordeste 0 -- -- 63
2020-01-11 03:00:00 9.3 4 Este 21 Nordeste 0 -- -- 63
2020-01-11 02:00:00 9.4 8 Norte 21 Nordeste 0 -- -- 64
2020-01-11 01:00:00 9.7 10 Nordeste 30 Nordeste 0 -- -- 66
2020-01-11 00:00:00 10.3 12 Nordeste 39 Nordeste 0 -- -- 65
2020-01-10 23:00:00 10.3 19 Nordeste 50 Nordeste 0 -- -- 66
2020-01-10 22:00:00 10.6 22 Nordeste 60 Este 0 -- -- 64
2020-01-10 21:00:00 11.2 21 Nordeste 50 Nordeste 0 -- -- 62
2020-01-10 20:00:00 11.4 14 Nordeste 41 Nordeste 0 -- -- 60
2020-01-10 19:00:00 11.5 19 Nordeste 45 Nordeste 0 -- -- 62
2020-01-10 18:00:00 11.9 12 Nordeste 49 Nordeste 0 -- -- 61
2020-01-10 17:00:00 13.6 13 Norte 30 Nordeste 0 -- -- 53
2020-01-10 16:00:00 14.7 12 Norte 34 Nordeste 0 -- -- 48
2020-01-10 15:00:00 14.3 14 Nordeste 38 Nordeste 0 -- -- 51
2020-01-10 14:00:00 15.6 12 Nordeste 31 Nordeste 0 -- -- 48
2020-01-10 13:00:00 14.2 13 Nordeste 36 Nordeste 0 -- -- 52
2020-01-10 12:00:00 13.4 14 Nordeste 33 Nordeste 0 -- -- 57
2020-01-10 11:00:00 11.7 8 Norte 21 Norte 0 -- -- 68
2020-01-10 10:00:00 9.4 4 Norte 13 Noroeste 0 -- -- 89
2020-01-10 09:00:00 8.7 5 Noroeste 12 Oeste 0 -- -- 95
2020-01-10 08:00:00 8.7 5 Oeste 11 Noroeste 0.2 -- -- 95
2020-01-10 07:00:00 8.9 5 Noroeste 10 Noroeste 0.8 -- -- 94
2020-01-10 06:00:00 9.3 3 Oeste 8 Norte 0.8 -- -- 90
2020-01-10 05:00:00 10.2 3 Norte 7 Noroeste 0.4 -- -- 83
2020-01-10 04:00:00 10.4 2 Este 10 Sur 0 -- -- 81
2020-01-10 03:00:00 10.6 5 Este 18 Norte 0 -- -- 78
2020-01-10 02:00:00 9.7 2 Sudoeste 6 Noroeste 0 -- -- 87
2020-01-10 01:00:00 9.5 2 Oeste 10 Este 0 -- -- 88
2020-01-10 00:00:00 10 5 Este 11 Este 0 -- -- 85
2020-01-09 23:00:00 10.2 6 Nordeste 12 Nordeste 0 -- -- 84
2020-01-09 22:00:00 11 3 Sudoeste 11 Noroeste 0 -- -- 80
2020-01-09 21:00:00 11.4 7 Oeste 30 Oeste 0 -- -- 80
2020-01-09 20:00:00 11.8 16 Oeste 39 Sudoeste 0 -- -- 80
2020-01-09 19:00:00 12.3 19 Oeste 37 Oeste 0 -- -- 76
2020-01-09 18:00:00 13 15 Sudoeste 33 Oeste 0 -- -- 71
2020-01-09 17:00:00 14.2 14 Sudoeste 34 Sudoeste 0 -- -- 66
2020-01-09 16:00:00 15.7 17 Sudoeste 35 Oeste 0 -- -- 62
2020-01-09 15:00:00 16.2 16 Sudoeste 31 Sudoeste 0 -- -- 62
2020-01-09 14:00:00 15.9 12 Sudoeste 26 Sudoeste 0 -- -- 63
2020-01-09 13:00:00 13.7 4 Sur 16 Sudoeste 0 -- -- 74
2020-01-09 12:00:00 11.1 3 Sur 6 Sur 0 -- -- 78
2020-01-09 11:00:00 8.8 3 Sudeste 5 Sudoeste 0 -- -- 79
2020-01-09 10:00:00 5.7 0 Calma 5 Sur 0 -- -- 88
2020-01-09 09:00:00 4 0 Calma 5 Norte 0 -- -- 96
2020-01-09 08:00:00 3.4 3 Norte 8 Noroeste 0 -- -- 95
2020-01-09 07:00:00 3.8 3 Nordeste 7 Norte 0 -- -- 96
2020-01-09 06:00:00 3.4 0 Calma 6 Noroeste 0 -- -- 94
2020-01-09 05:00:00 3.7 2 Sur 6 Noroeste 0 -- -- 93
2020-01-09 04:00:00 4 2 Noroeste 5 Noroeste 0 -- -- 93
2020-01-09 03:00:00 4.5 3 Norte 6 Noroeste 0 -- -- 92
2020-01-09 02:00:00 5.3 3 Noroeste 8 Noroeste 0 -- -- 91
2020-01-09 01:00:00 5.5 4 Noroeste 7 Noroeste 0 -- -- 90
2020-01-09 00:00:00 6.3 4 Norte 7 Norte 0 -- -- 89
2020-01-08 23:00:00 7.6 0 Calma 5 Norte 0 -- -- 86
2020-01-08 22:00:00 8.2 3 Norte 6 Noroeste 0 -- -- 85
2020-01-08 21:00:00 8.8 5 Noroeste 8 Noroeste 0 -- -- 84
2020-01-08 20:00:00 11.3 0 Calma 8 Norte 0 -- -- 75
2020-01-08 19:00:00 12.2 3 Noroeste 8 Sur 0 -- -- 77
2020-01-08 18:00:00 13 4 Sudoeste 8 Oeste 0 -- -- 79
2020-01-08 17:00:00 14.5 4 Sudoeste 12 Sudeste 0 -- -- 69
2020-01-08 16:00:00 16.3 7 Sur 14 Sudoeste 0 -- -- 57
2020-01-08 15:00:00 17.3 6 Sur 12 Sudoeste 0 -- -- 53
2020-01-08 14:00:00 16.9 4 Sudeste 15 Este 0 -- -- 56
2020-01-08 13:00:00 16.5 8 Sudeste 19 Nordeste 0 -- -- 57
2020-01-08 12:00:00 16.3 9 Este 21 Este 0 -- -- 57
2020-01-08 11:00:00 15.6 6 Este 21 Este 0 -- -- 60
2020-01-08 10:00:00 14.1 5 Este 13 Este 0 -- -- 68
2020-01-08 09:00:00 9.7 4 Nordeste 15 Nordeste 0 -- -- 85
2020-01-08 08:00:00 8 4 Noroeste 10 Noroeste 0 -- -- 83
2020-01-08 07:00:00 8.8 5 Norte 10 Noroeste 0 -- -- 77
2020-01-08 06:00:00 9.9 3 Norte 14 Oeste 0 -- -- 73
2020-01-08 05:00:00 12 4 Noroeste 26 Norte 0 -- -- 68
2020-01-08 04:00:00 12.7 5 Oeste 28 Noroeste 0 -- -- 68
2020-01-08 03:00:00 14.4 10 Nordeste 46 Norte 0 -- -- 63
2020-01-08 02:00:00 13.5 16 Norte 41 Nordeste 0 -- -- 67
2020-01-08 01:00:00 13.3 11 Norte 38 Nordeste 0 -- -- 67
2020-01-08 00:00:00 13.6 12 Norte 41 Nordeste 0 -- -- 66
2020-01-07 23:00:00 13.5 11 Nordeste 40 Nordeste 0 -- -- 66
2020-01-07 22:00:00 13.7 17 Nordeste 42 Nordeste 0 -- -- 65
2020-01-07 21:00:00 11.1 6 Noroeste 16 Nordeste 0 -- -- 70
2020-01-07 20:00:00 13.8 5 Norte 22 Nordeste 0 -- -- 63
2020-01-07 19:00:00 15 14 Norte 32 Nordeste 0 -- -- 59
2020-01-07 18:00:00 14.9 12 Nordeste 40 Nordeste 0 -- -- 59
2020-01-07 17:00:00 15.6 18 Nordeste 36 Nordeste 0 -- -- 57
2020-01-07 16:00:00 16 15 Nordeste 29 Nordeste 0 -- -- 57
2020-01-07 15:00:00 16.2 3 Sur 12 Nordeste 0 -- -- 55
2020-01-07 14:00:00 15.3 5 Este 17 Norte 0 -- -- 53
2020-01-07 13:00:00 13.6 4 Sudeste 8 Sur 0 -- -- 63
2020-01-07 12:00:00 12.4 3 Sudeste 6 Noroeste 0 -- -- 66
2020-01-07 11:00:00 8.8 3 Oeste 9 Noroeste 0 -- -- 83
2020-01-07 10:00:00 5.8 0 Calma 5 Sur 0 -- -- 86
2020-01-07 09:00:00 4.2 0 Calma 8 Noroeste 0 -- -- 91
2020-01-07 08:00:00 3.9 4 Noroeste 11 Noroeste 0 -- -- 92
2020-01-07 07:00:00 3.1 6 Noroeste 9 Noroeste 0 -- -- 93
2020-01-07 06:00:00 3.5 0 Calma 6 Noroeste 0 -- -- 93
2020-01-07 05:00:00 3.5 0 Calma 4 Sudoeste 0 -- -- 92
2020-01-07 04:00:00 4.8 2 Sudoeste 9 Noroeste 0 -- -- 92
2020-01-07 03:00:00 5.6 3 Oeste 10 Noroeste 0 -- -- 93
2020-01-07 02:00:00 4.8 9 Noroeste 15 Oeste 0 -- -- 93
2020-01-07 01:00:00 5.5 3 Noroeste 10 Noroeste 0 -- -- 92
2020-01-07 00:00:00 6.3 4 Sudoeste 12 Sudoeste 0 -- -- 89
2020-01-06 23:00:00 7.7 5 Noroeste 10 Noroeste 0 -- -- 88
2020-01-06 22:00:00 9.8 4 Nordeste 14 Nordeste 0 -- -- 88
2020-01-06 21:00:00 9 2 Norte 6 Nordeste 0 -- -- 87
2020-01-06 20:00:00 9.4 2 Norte 5 Norte 0 -- -- 84
2020-01-06 19:00:00 10.7 2 Norte 8 Nordeste 0 -- -- 82
2020-01-06 18:00:00 11.7 2 Sudoeste 9 Sur 0 -- -- 78
2020-01-06 17:00:00 13 3 Sudeste 13 Sudeste 0 -- -- 72
2020-01-06 16:00:00 14.7 3 Sudeste 10 Sur 0 -- -- 63
2020-01-06 15:00:00 15.3 5 Sur 13 Sur 0 -- -- 61
2020-01-06 14:00:00 15.2 6 Sur 12 Sur 0 -- -- 61
2020-01-06 13:00:00 14.7 4 Sudoeste 9 Sudoeste 0 -- -- 63
2020-01-06 12:00:00 12.4 3 Sudeste 6 Sur 0 -- -- 69
2020-01-06 11:00:00 10 0 Calma 10 Noroeste 0 -- -- 72
2020-01-06 10:00:00 6.1 6 Noroeste 10 Noroeste 0 -- -- 80